Time;durP1;ratioP1;P1;durP2;ratioP2;P2;SDS_P1;SDS_P2;PMS_P1;PMS_P2;Temp;Humidity;BMP_temperature;BMP_pressure;BME280_temperature;BME280_humidity;BME280_pressure;Samples;Min_cycle;Max_cycle;Signal;HPM_P1;HPM_P2
2021/12/11 00:01:19;;;;;;;;;5.75;3.50;;;;;4.88;93.57;100212.97;5077449;27;46193;-66
2021/12/11 00:03:48;;;;;;;;;5.00;3.50;;;;;4.87;94.12;100213.84;5077612;27;45364;-62
2021/12/11 00:06:25;;;;;;;;;8.00;4.25;;;;;4.85;93.53;100217.38;5076857;27;45398;-61
2021/12/11 00:08:55;;;;;;;;;7.50;5.75;;;;;4.85;93.70;100226.06;5077870;27;45417;-65
2021/12/11 00:11:28;;;;;;;;;9.75;5.00;;;;;4.83;93.90;100220.88;5077755;27;45464;-64
2021/12/11 00:14:00;;;;;;;;;5.00;5.00;;;;;4.83;94.47;100233.06;5074817;27;45358;-62
2021/12/11 00:16:28;;;;;;;;;10.50;4.75;;;;;4.82;94.56;100224.38;5076779;27;45488;-61
2021/12/11 00:19:02;;;;;;;;;6.25;5.00;;;;;4.83;94.20;100239.13;5076921;27;45613;-64
2021/12/11 00:21:28;;;;;;;;;6.25;6.00;;;;;4.84;93.76;100242.59;5076757;28;45477;-60
2021/12/11 00:24:04;;;;;;;;;2.75;0.75;;;;;4.84;93.94;100247.81;5075588;27;45247;-64
2021/12/11 00:26:34;;;;;;;;;6.50;5.25;;;;;4.80;93.38;100256.59;5076682;27;45410;-63
2021/12/11 00:29:00;;;;;;;;;5.25;5.00;;;;;4.75;94.26;100247.97;5074944;27;45476;-63
2021/12/11 00:31:30;;;;;;;;;4.75;4.00;;;;;4.83;93.83;100246.09;5074872;27;46171;-62
2021/12/11 00:33:56;;;;;;;;;9.50;4.00;;;;;4.83;93.50;100254.75;5074447;27;45553;-65
2021/12/11 00:36:31;;;;;;;;;8.25;4.00;;;;;4.82;94.13;100263.47;5077181;27;45415;-65
2021/12/11 00:39:05;;;;;;;;;6.75;3.50;;;;;4.82;94.04;100270.44;5077049;27;45243;-64
2021/12/11 00:41:33;;;;;;;;;6.25;4.50;;;;;4.81;94.03;100266.97;5080672;27;47280;-61
2021/12/11 00:44:01;;;;;;;;;6.00;5.00;;;;;4.81;93.58;100287.81;5076976;27;45697;-61
2021/12/11 00:46:30;;;;;;;;;3.50;3.50;;;;;4.81;93.12;100292.19;5077647;27;45403;-62
2021/12/11 00:49:07;;;;;;;;;9.50;4.00;;;;;4.79;93.03;100292.19;5076847;27;45207;-62
2021/12/11 00:51:33;;;;;;;;;6.75;3.50;;;;;4.80;93.81;100285.25;5076127;27;45363;-60
2021/12/11 00:53:59;;;;;;;;;9.00;5.00;;;;;4.80;93.39;100296.53;5075118;27;45381;-59
2021/12/11 00:56:37;;;;;;;;;4.25;4.00;;;;;4.78;93.78;100292.25;5075389;27;45378;-62
2021/12/11 00:59:08;;;;;;;;;5.00;3.50;;;;;4.80;93.66;100301.72;5076767;28;45253;-60
2021/12/11 01:01:38;;;;;;;;;5.00;3.25;;;;;4.81;93.84;100308.66;5076198;28;46048;-64
2021/12/11 01:04:08;;;;;;;;;5.75;3.75;;;;;4.81;93.47;100313.88;5077343;27;45337;-66
2021/12/11 01:06:45;;;;;;;;;5.25;4.00;;;;;4.82;93.38;100319.97;5076445;27;45432;-64
2021/12/11 01:09:28;;;;;;;;;6.25;4.75;;;;;4.82;93.49;100326.00;5077157;27;45352;-65
2021/12/11 01:12:03;;;;;;;;;4.00;4.00;;;;;4.84;93.39;100333.81;5076254;27;47167;-64
2021/12/11 01:14:54;;;;;;;;;8.00;4.00;;;;;4.83;94.41;100332.94;5076855;27;45367;-64
2021/12/11 01:17:26;;;;;;;;;5.50;3.25;;;;;4.83;93.42;100332.09;5076058;27;45365;-63
2021/12/11 01:19:56;;;;;;;;;2.00;2.00;;;;;4.84;93.44;100341.63;5076222;27;45508;-62
2021/12/11 01:22:35;;;;;;;;;6.50;3.50;;;;;4.82;94.14;100344.25;5075893;27;45562;-60
2021/12/11 01:25:04;;;;;;;;;3.50;3.50;;;;;4.83;93.80;100345.97;5076711;27;45500;-64
2021/12/11 01:27:30;;;;;;;;;6.50;3.25;;;;;4.83;94.08;100352.94;5076915;28;45303;-63
2021/12/11 01:29:58;;;;;;;;;6.25;3.00;;;;;4.82;93.24;100362.50;5076452;27;45283;-66
2021/12/11 01:32:26;;;;;;;;;3.75;3.00;;;;;4.82;93.37;100365.09;5076089;27;46863;-62
2021/12/11 01:34:52;;;;;;;;;4.50;2.00;;;;;4.83;93.50;100366.81;5077400;27;45477;-60
2021/12/11 01:37:18;;;;;;;;;5.75;4.00;;;;;4.84;94.20;100362.47;5080128;27;45458;-64
2021/12/11 01:39:44;;;;;;;;;4.50;2.50;;;;;4.83;93.01;100377.25;5081331;27;45283;-64
2021/12/11 01:42:23;;;;;;;;;5.50;3.25;;;;;4.83;93.75;100373.78;5078621;27;47025;-62
2021/12/11 01:44:51;;;;;;;;;5.00;3.00;;;;;4.80;94.08;100381.69;5080571;27;45427;-62
2021/12/11 01:47:21;;;;;;;;;6.25;3.50;;;;;4.80;93.91;100392.09;5081277;27;45292;-64
2021/12/11 01:49:52;;;;;;;;;5.50;4.00;;;;;4.80;94.41;100399.91;5080523;27;45718;-65
2021/12/11 01:52:38;;;;;;;;;3.75;2.75;;;;;4.77;94.03;100400.81;5081738;27;45327;-62
2021/12/11 01:55:22;;;;;;;;;6.00;3.75;;;;;4.73;93.54;100391.34;5082191;27;45238;-65
2021/12/11 01:57:53;;;;;;;;;3.25;2.75;;;;;4.75;94.03;100401.72;5081413;27;45334;-64
2021/12/11 02:00:34;;;;;;;;;4.75;3.00;;;;;4.73;94.28;100399.16;5081989;27;45549;-62
2021/12/11 02:03:05;;;;;;;;;3.75;3.00;;;;;4.72;93.99;100405.25;5080253;27;46381;-62
2021/12/11 02:05:34;;;;;;;;;5.75;4.00;;;;;4.70;94.18;100411.38;5079404;28;45315;-60
2021/12/11 02:08:04;;;;;;;;;5.25;2.00;;;;;4.67;94.06;100413.16;5077900;27;45270;-65
2021/12/11 02:10:37;;;;;;;;;2.00;2.00;;;;;4.67;94.93;100417.53;5080137;27;45426;-66
2021/12/11 02:13:07;;;;;;;;;6.00;4.00;;;;;4.65;94.67;100416.69;5080312;27;47102;-62
2021/12/11 02:15:38;;;;;;;;;5.25;3.25;;;;;4.63;94.95;100427.13;5079597;27;45476;-63
2021/12/11 02:18:15;;;;;;;;;3.00;3.00;;;;;4.62;94.83;100435.81;5078863;27;45311;-64
2021/12/11 02:20:56;;;;;;;;;4.00;3.00;;;;;4.61;94.80;100438.47;5078153;27;45422;-65
2021/12/11 02:23:24;;;;;;;;;3.50;3.50;;;;;4.60;95.00;100447.19;5079899;28;45615;-63
2021/12/11 02:25:54;;;;;;;;;4.00;2.25;;;;;4.51;94.55;100435.16;5077685;27;45444;-64
2021/12/11 02:28:30;;;;;;;;;8.25;3.50;;;;;4.59;95.33;100450.66;5078702;27;45503;-63
2021/12/11 02:31:17;;;;;;;;;5.50;3.75;;;;;4.57;95.40;100452.44;5078560;27;45270;-62
2021/12/11 02:33:51;;;;;;;;;3.25;2.50;;;;;4.55;95.49;100454.22;5078153;27;45414;-62
2021/12/11 02:36:26;;;;;;;;;4.00;2.25;;;;;4.55;95.47;100460.25;5094097;27;45384;-62
2021/12/11 02:39:13;;;;;;;;;9.25;5.75;;;;;4.55;95.32;100451.59;5078369;27;45263;-61
2021/12/11 02:41:42;;;;;;;;;4.50;4.00;;;;;4.52;95.88;100448.16;5078521;27;45335;-59
2021/12/11 02:44:24;;;;;;;;;3.00;2.00;;;;;4.51;95.67;100459.47;5077937;27;46053;-62
2021/12/11 02:47:29;;;;;;;;;5.50;3.00;;;;;4.50;95.79;100460.38;5077839;27;45475;-63
2021/12/11 02:50:09;;;;;;;;;4.00;3.00;;;;;4.47;95.89;100469.97;5077726;27;45373;-64
2021/12/11 02:52:54;;;;;;;;;5.50;2.25;;;;;4.45;95.62;100470.00;5078271;27;45383;-64
2021/12/11 02:55:37;;;;;;;;;2.25;2.00;;;;;4.43;95.60;100476.97;5078308;27;46230;-62
2021/12/11 02:58:14;;;;;;;;;1.00;0.00;;;;;4.37;96.02;100462.28;5081046;27;45380;-61
2021/12/11 03:00:45;;;;;;;;;8.75;4.00;;;;;4.42;95.60;100483.06;5077828;27;45321;-58
2021/12/11 03:03:13;;;;;;;;;4.00;2.25;;;;;4.42;95.79;100479.59;5078532;27;45479;-61
2021/12/11 03:05:50;;;;;;;;;4.00;3.00;;;;;4.33;96.18;100475.41;5078189;27;45288;-61
2021/12/11 03:08:19;;;;;;;;;6.00;2.75;;;;;4.39;96.48;100498.75;5078055;27;45401;-65
2021/12/11 03:10:52;;;;;;;;;4.00;1.25;;;;;4.38;96.17;100494.44;5078284;27;45485;-63
2021/12/11 03:13:18;;;;;;;;;3.00;3.00;;;;;4.37;95.95;100497.91;5079719;27;45372;-63
2021/12/11 03:15:44;;;;;;;;;3.25;1.25;;;;;4.32;95.93;100497.13;5078166;27;46180;-65
2021/12/11 03:18:10;;;;;;;;;3.00;1.75;;;;;4.35;96.39;100500.53;5078202;27;45490;-61
2021/12/11 03:20:38;;;;;;;;;6.00;3.00;;;;;4.37;96.32;100514.38;5079107;27;45298;-62
2021/12/11 03:23:07;;;;;;;;;3.00;2.25;;;;;4.37;96.08;100518.75;5078617;27;45353;-63
2021/12/11 03:25:34;;;;;;;;;2.50;1.00;;;;;4.35;95.63;100517.91;5078084;27;46173;-62
2021/12/11 03:28:01;;;;;;;;;3.25;2.00;;;;;4.37;95.93;100540.44;5076826;28;45427;-62
2021/12/11 03:30:32;;;;;;;;;5.00;2.75;;;;;4.39;95.73;100543.03;5078062;28;45424;-59
2021/12/11 03:33:02;;;;;;;;;2.75;2.75;;;;;4.37;94.45;100537.81;5078607;27;45360;-64
2021/12/11 03:35:29;;;;;;;;;7.75;2.00;;;;;4.36;95.49;100549.13;5080354;27;46353;-61
2021/12/11 03:37:55;;;;;;;;;4.25;3.00;;;;;4.34;96.09;100542.22;5078636;27;45344;-65
2021/12/11 03:40:21;;;;;;;;;2.25;2.25;;;;;4.35;96.09;100543.97;5078553;27;45390;-61
2021/12/11 03:42:50;;;;;;;;;5.25;3.50;;;;;4.31;94.96;100555.31;5080184;27;45389;-63
2021/12/11 03:45:25;;;;;;;;;6.00;4.00;;;;;4.31;95.64;100553.53;5078715;27;46090;-62
2021/12/11 03:47:55;;;;;;;;;3.50;3.00;;;;;4.33;95.73;100558.75;5077764;28;45354;-64
2021/12/11 03:50:23;;;;;;;;;5.00;3.50;;;;;4.30;95.28;100564.84;5077645;27;45444;-63
2021/12/11 03:52:50;;;;;;;;;9.50;3.75;;;;;4.31;95.52;100570.94;5079350;27;45472;-63
2021/12/11 03:55:24;;;;;;;;;5.00;3.75;;;;;4.29;96.18;100576.16;5078300;27;46240;-65
2021/12/11 03:57:57;;;;;;;;;6.00;3.75;;;;;4.26;96.35;100577.94;5077979;27;45476;-61
2021/12/11 04:00:25;;;;;;;;;2.00;2.00;;;;;4.29;97.07;100580.50;5076495;28;45264;-63
2021/12/11 04:02:53;;;;;;;;;5.00;4.00;;;;;4.27;97.03;100585.72;5077395;27;45625;-59
2021/12/11 04:05:21;;;;;;;;;7.25;3.75;;;;;4.26;96.70;100577.94;5077018;27;45292;-58
2021/12/11 04:07:50;;;;;;;;;5.00;3.00;;;;;4.24;97.17;100578.81;5077060;27;45320;-59
2021/12/11 04:10:18;;;;;;;;;5.50;2.00;;;;;4.19;97.13;100569.34;5076944;27;45362;-64
2021/12/11 04:12:45;;;;;;;;;4.50;3.00;;;;;4.23;96.96;100584.88;5077826;27;45505;-61
2021/12/11 04:15:11;;;;;;;;;3.75;3.00;;;;;4.22;96.88;100579.72;5077255;27;45473;-64
2021/12/11 04:17:37;;;;;;;;;2.00;2.00;;;;;4.21;96.79;100585.81;5081637;27;45239;-64
2021/12/11 04:20:09;;;;;;;;;3.75;2.00;;;;;4.20;97.38;100597.94;5086183;27;45332;-62
2021/12/11 04:22:35;;;;;;;;;6.00;3.00;;;;;4.17;96.76;100590.19;5080336;27;45471;-63
2021/12/11 04:25:02;;;;;;;;;4.50;2.00;;;;;4.11;96.37;100582.44;5076508;27;45361;-65
2021/12/11 04:27:27;;;;;;;;;5.50;3.00;;;;;4.16;96.65;100598.88;5077386;27;45390;-65
2021/12/11 04:29:54;;;;;;;;;2.50;2.50;;;;;4.16;97.01;100603.22;5082493;27;45821;-64
2021/12/11 04:32:22;;;;;;;;;3.25;2.25;;;;;4.11;97.19;100600.69;5078570;27;45361;-62
2021/12/11 04:34:48;;;;;;;;;3.00;3.00;;;;;4.08;96.72;100603.31;5077051;27;45430;-65
2021/12/11 04:37:22;;;;;;;;;5.50;4.00;;;;;4.11;96.93;100607.63;5075293;28;45333;-62
2021/12/11 04:39:56;;;;;;;;;3.25;2.75;;;;;4.11;97.36;100616.28;5076424;27;45362;-63
2021/12/11 04:42:37;;;;;;;;;6.00;3.00;;;;;4.11;96.70;100611.09;5076571;27;45386;-60
2021/12/11 04:45:10;;;;;;;;;3.00;3.00;;;;;4.11;97.28;100629.31;5076330;27;47548;-61
2021/12/11 04:47:43;;;;;;;;;3.50;2.50;;;;;4.09;97.69;100623.25;5076802;27;45301;-61
2021/12/11 04:50:22;;;;;;;;;8.00;3.00;;;;;4.09;97.68;100631.06;5075141;28;45331;-61
2021/12/11 04:55:35;;;;;;;;;4.00;2.25;;;;;4.04;97.64;100631.16;5077377;27;45352;-64
2021/12/11 04:58:38;;;;;;;;;5.25;2.00;;;;;4.04;97.69;100646.78;5078087;27;45355;-63
2021/12/11 05:11:41;;;;;;;;;5.25;3.00;;;;;3.98;98.31;100633.81;5076525;28;45403;-61
2021/12/11 05:14:10;;;;;;;;;5.25;3.25;;;;;3.99;98.29;100632.06;5076523;27;45295;-62
2021/12/11 05:16:36;;;;;;;;;4.25;3.50;;;;;3.97;98.02;100636.44;5078302;27;47362;-59
2021/12/11 05:19:02;;;;;;;;;2.75;2.00;;;;;3.85;98.17;100614.88;5077100;28;45381;-59
2021/12/11 05:21:28;;;;;;;;;3.00;3.00;;;;;3.94;98.42;100634.75;5078242;27;45400;-61
2021/12/11 05:23:53;;;;;;;;;4.75;3.50;;;;;3.93;98.62;100646.88;5078438;27;45273;-63
2021/12/11 05:26:20;;;;;;;;;5.25;2.00;;;;;3.92;98.52;100647.75;5076603;27;46369;-61
2021/12/11 05:28:46;;;;;;;;;7.75;3.25;;;;;3.91;98.74;100645.19;5076471;27;45239;-59
2021/12/11 05:31:12;;;;;;;;;3.25;2.50;;;;;3.89;98.27;100653.00;5077069;27;45149;-60
2021/12/11 05:33:39;;;;;;;;;3.00;3.00;;;;;3.89;97.93;100663.41;5076327;27;45535;-62
2021/12/11 05:36:07;;;;;;;;;2.00;2.00;;;;;3.88;97.78;100674.69;5075964;27;45540;-62
2021/12/11 05:38:37;;;;;;;;;3.00;3.00;;;;;3.88;97.97;100679.91;5074939;27;45458;-63
2021/12/11 05:41:04;;;;;;;;;5.75;2.75;;;;;3.87;98.40;100686.00;5076052;28;46168;-63
2021/12/11 05:43:31;;;;;;;;;4.50;3.00;;;;;3.86;98.85;100686.88;5076839;27;45444;-69
2021/12/11 05:45:57;;;;;;;;;3.00;3.00;;;;;3.84;98.61;100683.41;5075933;27;48151;-69
2021/12/11 05:48:23;;;;;;;;;4.00;2.00;;;;;3.82;98.76;100698.19;5079226;27;45608;-71
2021/12/11 05:50:52;;;;;;;;;3.50;2.00;;;;;3.84;98.44;100706.84;5071094;28;46058;-75
2021/12/11 05:53:20;;;;;;;;;4.50;3.00;;;;;3.78;98.93;100699.97;5076257;27;45557;-70
2021/12/11 05:55:47;;;;;;;;;4.75;3.00;;;;;3.82;98.34;100712.94;5077447;28;45428;-73
2021/12/11 05:58:22;;;;;;;;;7.25;3.00;;;;;3.83;98.98;100720.72;5090174;27;45481;-74
2021/12/11 06:00:50;;;;;;;;;3.00;2.25;;;;;3.80;98.30;100720.75;5074261;27;45536;-73
2021/12/11 06:03:16;;;;;;;;;6.00;3.25;;;;;3.84;98.92;100725.06;5069078;28;45244;-74
2021/12/11 06:05:43;;;;;;;;;3.00;2.25;;;;;3.85;98.67;100741.56;5076587;27;45177;-70
2021/12/11 06:08:09;;;;;;;;;4.75;2.50;;;;;3.84;99.08;100740.66;5073143;27;45489;-64
2021/12/11 06:10:36;;;;;;;;;3.25;3.00;;;;;3.84;98.72;100748.47;5075471;27;45543;-72
2021/12/11 06:13:03;;;;;;;;;5.50;2.00;;;;;3.87;98.93;100751.03;5077281;28;45350;-68
2021/12/11 06:15:30;;;;;;;;;4.50;1.75;;;;;3.90;98.67;100751.03;5077884;27;45926;-73
2021/12/11 06:17:57;;;;;;;;;5.25;3.75;;;;;3.90;98.70;100743.22;5077408;28;45393;-72
2021/12/11 06:20:27;;;;;;;;;4.25;3.00;;;;;3.70;98.99;100712.16;5079656;27;45326;-71
2021/12/11 06:22:53;;;;;;;;;7.00;3.25;;;;;3.92;99.36;100746.66;5082031;27;45675;-77
2021/12/11 06:25:28;;;;;;;;;4.75;3.00;;;;;3.93;98.87;100750.13;5081286;27;45469;-74
2021/12/11 06:27:54;;;;;;;;;3.25;3.00;;;;;3.93;99.16;100756.19;5080507;27;45443;-74
2021/12/11 06:30:19;;;;;;;;;6.00;3.00;;;;;3.94;99.28;100757.06;5080618;27;45257;-75
2021/12/11 06:32:47;;;;;;;;;3.75;3.75;;;;;3.94;99.31;100760.53;5082327;27;45519;-67
2021/12/11 06:35:27;;;;;;;;;3.75;2.00;;;;;3.95;99.54;100771.81;5100018;27;47532;-72
2021/12/11 06:37:52;;;;;;;;;5.50;3.75;;;;;3.93;99.79;100771.81;5086772;28;45325;-75
2021/12/11 06:40:18;;;;;;;;;7.75;4.00;;;;;3.91;99.39;100763.16;5086586;27;45321;-74
2021/12/11 06:42:44;;;;;;;;;3.00;2.00;;;;;3.97;99.24;100779.59;5081260;27;45540;-63
2021/12/11 06:45:09;;;;;;;;;3.00;3.00;;;;;3.90;99.12;100764.03;5080719;27;46171;-71
2021/12/11 06:47:35;;;;;;;;;7.25;4.50;;;;;3.89;99.36;100772.72;5078988;28;45997;-74
2021/12/11 06:50:05;;;;;;;;;4.00;4.00;;;;;3.94;99.09;100791.75;5080511;27;45290;-66
2021/12/11 06:52:31;;;;;;;;;5.00;4.00;;;;;3.93;98.86;100795.22;5077802;27;45499;-72
2021/12/11 06:54:56;;;;;;;;;4.50;4.50;;;;;3.93;99.30;100802.19;5076602;28;46306;-69
2021/12/11 06:57:23;;;;;;;;;8.75;4.75;;;;;3.92;99.59;100811.72;5079087;27;45379;-70
2021/12/11 06:59:49;;;;;;;;;9.50;5.00;;;;;3.92;99.48;100816.09;5079763;27;45287;-68
2021/12/11 07:02:19;;;;;;;;;5.75;3.00;;;;;3.90;99.51;100818.69;5079319;27;45398;-69
2021/12/11 07:04:44;;;;;;;;;4.50;3.00;;;;;3.88;99.65;100823.03;5078552;27;45703;-70
2021/12/11 07:07:12;;;;;;;;;3.50;3.50;;;;;3.90;99.50;100836.06;5080640;27;45379;-73
2021/12/11 07:09:37;;;;;;;;;3.75;3.00;;;;;3.88;99.61;100830.84;5079333;27;45335;-72
2021/12/11 07:12:04;;;;;;;;;4.50;2.50;;;;;3.89;99.64;100829.13;5079558;27;45376;-64
2021/12/11 07:14:31;;;;;;;;;4.25;2.00;;;;;3.89;99.25;100837.78;5079305;27;47028;-75
2021/12/11 07:16:57;;;;;;;;;6.50;4.00;;;;;3.90;99.56;100851.66;5078626;27;45351;-72
2021/12/11 07:19:23;;;;;;;;;11.50;5.75;;;;;3.90;98.99;100855.13;5079308;27;45367;-68
2021/12/11 07:21:51;;;;;;;;;11.00;8.50;;;;;3.86;99.37;100853.41;5078238;27;45335;-74
2021/12/11 07:24:22;;;;;;;;;10.75;5.00;;;;;3.88;99.32;100862.06;5078540;27;46889;-72
2021/12/11 07:26:48;;;;;;;;;4.75;4.00;;;;;3.87;99.50;100868.16;5079145;27;45218;-69
2021/12/11 07:29:15;;;;;;;;;2.50;2.50;;;;;3.88;99.25;100869.88;5079153;27;45263;-72
2021/12/11 07:31:45;;;;;;;;;8.25;5.00;;;;;3.89;99.78;100871.63;5080158;27;45484;-70
2021/12/11 07:34:11;;;;;;;;;4.50;4.50;;;;;3.72;99.27;100845.75;5083713;27;46417;-73
2021/12/11 07:36:37;;;;;;;;;10.25;4.25;;;;;3.93;99.86;100867.25;5081424;27;45343;-74
2021/12/11 07:39:08;;;;;;;;;3.00;3.00;;;;;3.94;99.54;100869.84;5078521;27;45234;-71
2021/12/11 07:41:34;;;;;;;;;10.75;3.50;;;;;3.95;100.00;100871.56;5094416;27;45766;-75
2021/12/11 07:43:59;;;;;;;;;4.75;4.00;;;;;3.92;99.75;100882.00;5079284;27;46158;-74
2021/12/11 07:46:28;;;;;;;;;4.00;4.00;;;;;3.96;99.69;100888.06;5078080;28;45182;-76
2021/12/11 07:48:53;;;;;;;;;4.75;3.75;;;;;3.97;99.54;100892.38;5063639;28;45370;-74
2021/12/11 07:51:21;;;;;;;;;4.25;4.25;;;;;3.99;100.00;100895.84;5078422;27;45705;-76
2021/12/11 07:53:47;;;;;;;;;5.50;3.50;;;;;3.93;99.82;100883.72;5078994;27;45551;-76
2021/12/11 07:56:13;;;;;;;;;4.25;4.00;;;;;3.98;99.94;100907.13;5081005;27;45744;-77
2021/12/11 07:58:39;;;;;;;;;9.00;4.50;;;;;4.07;99.73;100906.19;5080593;28;45293;-74
2021/12/11 08:01:07;;;;;;;;;5.50;5.00;;;;;4.09;99.85;100913.13;5079635;27;45276;-72
2021/12/11 08:03:34;;;;;;;;;8.50;5.00;;;;;4.13;99.98;100910.47;5078416;27;47304;-71
2021/12/11 08:06:00;;;;;;;;;10.00;2.00;;;;;4.16;99.98;100915.66;5078753;27;45430;-76
2021/12/11 08:08:26;;;;;;;;;7.25;6.50;;;;;4.17;99.93;100918.25;5077776;27;45347;-74
2021/12/11 08:11:01;;;;;;;;;5.00;5.00;;;;;4.21;99.83;100924.31;5079387;27;45301;-76
2021/12/11 08:13:27;;;;;;;;;5.75;5.00;;;;;4.26;99.40;100926.88;5076665;27;47661;-74
2021/12/11 08:15:55;;;;;;;;;9.75;6.50;;;;;4.27;99.68;100929.47;5076897;27;45441;-76
2021/12/11 08:18:22;;;;;;;;;7.50;4.75;;;;;4.29;98.90;100930.31;5078090;27;45468;-70
2021/12/11 08:20:48;;;;;;;;;4.50;4.00;;;;;4.30;99.26;100939.84;5080327;27;45604;-70
2021/12/11 08:23:15;;;;;;;;;9.00;5.00;;;;;4.31;98.47;100945.94;5094126;27;47991;-72
2021/12/11 08:25:43;;;;;;;;;9.25;6.00;;;;;4.34;98.65;100951.97;5075368;27;45474;-73
2021/12/11 08:28:11;;;;;;;;;10.00;5.25;;;;;4.37;99.03;100957.16;5076326;28;45434;-74
2021/12/11 08:30:40;;;;;;;;;10.25;4.75;;;;;4.39;98.67;100954.56;5075852;27;45583;-62
2021/12/11 08:33:07;;;;;;;;;9.75;6.00;;;;;4.45;98.52;100954.50;5076320;28;45457;-62
2021/12/11 08:35:32;;;;;;;;;5.00;5.00;;;;;4.51;98.49;100961.38;5075956;27;45385;-62
2021/12/11 08:37:58;;;;;;;;;12.75;9.50;;;;;4.56;98.61;100956.13;5076014;27;45314;-59
2021/12/11 08:40:28;;;;;;;;;14.25;10.50;;;;;4.61;98.51;100963.03;5075966;27;45499;-65
2021/12/11 08:42:54;;;;;;;;;10.50;7.75;;;;;4.65;98.84;100962.09;5076032;27;45373;-66
2021/12/11 08:45:26;;;;;;;;;7.75;6.00;;;;;4.76;98.47;100959.41;5074763;27;45475;-63
2021/12/11 08:47:57;;;;;;;;;10.50;6.00;;;;;4.87;97.97;100958.44;5074498;28;45401;-71
2021/12/11 08:50:27;;;;;;;;;9.75;6.50;;;;;4.97;97.94;100965.28;5077018;27;45404;-71
2021/12/11 08:52:54;;;;;;;;;8.50;7.75;;;;;5.05;97.40;100966.06;5071880;28;47425;-69
2021/12/11 08:55:25;;;;;;;;;10.50;7.25;;;;;5.18;98.32;100966.78;5075030;27;45331;-64
2021/12/11 08:57:51;;;;;;;;;11.00;6.00;;;;;5.32;96.58;100968.38;5077069;27;45240;-65
2021/12/11 09:00:31;;;;;;;;;8.25;7.00;;;;;5.43;96.54;100978.69;5077973;27;45152;-69
2021/12/11 09:03:28;;;;;;;;;9.50;7.00;;;;;5.57;95.77;100992.44;5077280;27;48195;-64
2021/12/11 09:06:03;;;;;;;;;13.50;9.75;;;;;5.70;96.13;100985.28;5076053;27;45409;-64
2021/12/11 09:08:28;;;;;;;;;9.75;7.75;;;;;5.82;95.45;100985.09;5076837;27;45346;-67
2021/12/11 09:11:18;;;;;;;;;11.75;8.25;;;;;5.96;95.24;100990.16;5075501;27;45511;-65
2021/12/11 09:13:50;;;;;;;;;10.00;7.00;;;;;6.10;95.26;100989.13;5057601;28;45863;-65
2021/12/11 09:16:21;;;;;;;;;8.50;7.25;;;;;6.24;94.97;100997.59;5075716;27;45293;-66
2021/12/11 09:18:54;;;;;;;;;11.25;8.25;;;;;6.39;93.97;101008.72;5075380;27;45414;-65
2021/12/11 09:21:31;;;;;;;;;11.75;9.75;;;;;6.52;93.87;101012.88;5075470;27;45365;-65
2021/12/11 09:24:04;;;;;;;;;13.00;7.25;;;;;6.58;93.71;101010.16;5074506;27;45506;-67
2021/12/11 09:26:39;;;;;;;;;14.75;11.00;;;;;6.73;92.28;101018.63;5074399;28;45347;-66
2021/12/11 09:29:15;;;;;;;;;12.00;10.25;;;;;6.77;91.94;101012.44;5076214;27;45295;-66
2021/12/11 09:32:05;;;;;;;;;11.50;7.25;;;;;6.93;92.15;101038.31;5075881;27;45319;-66
2021/12/11 09:34:37;;;;;;;;;10.75;10.00;;;;;7.00;91.71;101043.44;5078982;28;45313;-65
2021/12/11 09:37:05;;;;;;;;;17.00;11.50;;;;;7.07;91.18;101048.56;5075561;27;45422;-65
2021/12/11 09:39:56;;;;;;;;;15.75;11.00;;;;;7.09;90.27;101044.16;5075763;27;45253;-65
2021/12/11 09:42:21;;;;;;;;;10.00;8.00;;;;;7.12;90.37;101052.78;5064533;28;45461;-67
2021/12/11 09:44:50;;;;;;;;;8.50;7.00;;;;;7.13;88.85;101059.75;5090887;27;46616;-65
2021/12/11 09:47:23;;;;;;;;;6.25;6.00;;;;;7.12;89.74;101054.56;5074822;27;45268;-67
2021/12/11 09:49:57;;;;;;;;;12.00;10.75;;;;;7.12;89.71;101052.78;5075311;27;45440;-65
2021/12/11 09:52:25;;;;;;;;;12.25;11.00;;;;;7.17;90.10;101057.97;5076640;27;45484;-65
2021/12/11 09:54:59;;;;;;;;;11.00;10.00;;;;;7.22;89.09;101060.47;5079247;27;46409;-66
2021/12/11 09:57:28;;;;;;;;;8.25;7.00;;;;;7.21;89.22;101070.09;5084080;27;45279;-66
2021/12/11 09:59:57;;;;;;;;;10.50;7.50;;;;;7.16;88.18;101067.53;5080007;27;45165;-66
2021/12/11 10:02:28;;;;;;;;;7.00;5.00;;;;;7.12;88.02;101076.34;5079882;27;45338;-65
2021/12/11 10:05:00;;;;;;;;;9.75;7.00;;;;;7.08;88.43;101074.66;5078639;27;45304;-67
2021/12/11 10:07:36;;;;;;;;;7.75;7.00;;;;;7.06;89.06;101076.44;5077998;27;45407;-66
2021/12/11 10:10:12;;;;;;;;;24.00;12.50;;;;;7.09;88.55;101091.25;5076466;27;45203;-66
2021/12/11 10:12:42;;;;;;;;;9.50;7.00;;;;;7.09;88.49;101084.25;5078343;27;45313;-66
2021/12/11 10:15:13;;;;;;;;;12.50;9.25;;;;;7.15;88.85;101091.97;5078330;27;45345;-66
2021/12/11 10:17:53;;;;;;;;;7.75;6.25;;;;;7.17;88.38;101089.34;5079238;27;45465;-65
2021/12/11 10:20:27;;;;;;;;;15.75;9.00;;;;;7.25;88.08;101086.56;5091626;27;45338;-65
2021/12/11 10:22:58;;;;;;;;;14.50;10.50;;;;;7.31;89.01;101091.69;5078272;27;45314;-65
2021/12/11 10:25:30;;;;;;;;;12.50;9.25;;;;;7.36;88.83;101084.63;5077877;27;46154;-65
2021/12/11 10:27:58;;;;;;;;;13.50;10.50;;;;;7.43;87.25;101093.25;5077528;27;45360;-66
2021/12/11 10:30:26;;;;;;;;;11.25;10.00;;;;;7.48;87.39;101093.16;5078286;27;45236;-65
2021/12/11 10:32:52;;;;;;;;;15.50;10.50;;;;;7.49;87.55;101092.28;5079148;27;45449;-64
2021/12/11 10:35:24;;;;;;;;;11.25;8.25;;;;;7.45;87.51;101087.09;5077840;27;46698;-65
2021/12/11 10:37:50;;;;;;;;;9.75;7.00;;;;;7.53;88.12;101089.56;5078108;27;45436;-66
2021/12/11 10:40:31;;;;;;;;;11.00;10.25;;;;;7.52;87.13;101098.28;5080349;27;45256;-67
2021/12/11 10:43:03;;;;;;;;;8.25;7.00;;;;;7.51;87.69;101101.81;5078056;27;45450;-66
2021/12/11 10:45:30;;;;;;;;;9.75;6.75;;;;;7.48;87.29;101101.03;5077336;27;46476;-66
2021/12/11 10:48:00;;;;;;;;;10.50;7.50;;;;;7.39;87.38;101102.88;5077941;27;45371;-65
2021/12/11 10:50:48;;;;;;;;;9.75;8.25;;;;;7.36;86.81;101113.41;5077983;27;45321;-66
2021/12/11 10:53:19;;;;;;;;;11.75;10.00;;;;;7.31;87.78;101113.50;5078030;27;45339;-66
2021/12/11 10:55:45;;;;;;;;;9.25;7.00;;;;;7.26;87.21;101106.63;5076719;27;46332;-65
2021/12/11 10:58:15;;;;;;;;;9.50;9.50;;;;;7.25;86.54;101102.28;5076880;27;45361;-66
2021/12/11 11:00:50;;;;;;;;;12.00;10.75;;;;;7.19;87.01;101105.88;5076848;27;45486;-66
2021/12/11 11:03:17;;;;;;;;;14.50;9.50;;;;;7.20;87.49;101107.63;5076310;28;45421;-65
2021/12/11 11:05:43;;;;;;;;;11.50;8.00;;;;;7.13;87.97;101099.00;5076511;27;45637;-66
2021/12/11 11:08:10;;;;;;;;;11.25;9.00;;;;;7.26;88.26;101114.47;5076245;27;45276;-66
2021/12/11 11:10:42;;;;;;;;;13.25;8.50;;;;;7.32;87.71;101109.13;5077768;27;45429;-67
2021/12/11 11:13:11;;;;;;;;;10.00;7.25;;;;;7.39;87.04;101115.13;5077778;27;45411;-68
2021/12/11 11:15:38;;;;;;;;;10.50;7.25;;;;;7.47;87.09;101115.00;5077010;27;46411;-67
2021/12/11 11:18:05;;;;;;;;;10.00;8.25;;;;;7.56;87.55;101117.44;5077186;27;45366;-65
2021/12/11 11:20:39;;;;;;;;;13.50;7.75;;;;;7.67;86.43;101115.47;5078181;27;45344;-66
2021/12/11 11:23:05;;;;;;;;;15.00;11.75;;;;;7.77;86.17;101110.91;5079465;27;45487;-65
2021/12/11 11:25:35;;;;;;;;;18.75;16.50;;;;;7.90;87.33;101109.75;5080034;28;46427;-66
2021/12/11 11:28:08;;;;;;;;;14.50;12.00;;;;;8.09;86.49;101106.78;5078292;27;45383;-66
2021/12/11 11:30:38;;;;;;;;;14.25;8.75;;;;;8.23;86.14;101103.84;5078613;27;45363;-71
2021/12/11 11:33:07;;;;;;;;;11.25;9.00;;;;;8.36;85.66;101100.94;5076908;27;45451;-72
2021/12/11 11:35:38;;;;;;;;;16.25;11.25;;;;;8.46;85.50;101107.69;5076066;27;47214;-78
2021/12/11 11:38:05;;;;;;;;;15.50;11.50;;;;;8.51;84.82;101100.66;5075028;27;45420;-69
2021/12/11 11:40:35;;;;;;;;;15.00;13.50;;;;;8.59;84.91;101108.31;5078587;27;45241;-75
2021/12/11 11:43:02;;;;;;;;;22.75;20.75;;;;;8.64;84.68;101114.31;5080204;27;45592;-77
2021/12/11 11:45:29;;;;;;;;;18.50;13.75;;;;;8.64;84.70;101106.44;5079440;27;45310;-83
2021/12/11 11:47:56;;;;;;;;;13.75;10.50;;;;;8.65;84.33;101120.44;5077342;27;45398;-70
2021/12/11 11:50:28;;;;;;;;;24.00;18.25;;;;;8.65;84.39;101115.19;5076513;27;45314;-71
2021/12/11 11:52:53;;;;;;;;;15.50;11.00;;;;;8.66;83.93;101111.69;5078902;27;45327;-70
2021/12/11 11:55:24;;;;;;;;;13.25;11.50;;;;;8.50;84.14;101090.19;5076859;27;46068;-69
2021/12/11 11:57:52;;;;;;;;;13.50;11.50;;;;;8.68;83.57;101113.34;5076975;27;45577;-70
2021/12/11 12:00:29;;;;;;;;;12.75;9.25;;;;;8.70;84.22;101114.19;5077285;27;45370;-69